Time;durP1;ratioP1;P1;durP2;ratioP2;P2;SDS_P1;SDS_P2;PMS_P1;PMS_P2;Temp;Humidity;BMP_temperature;BMP_pressure;BME280_temperature;BME280_humidity;BME280_pressure;Samples;Min_cycle;Max_cycle;Signal;HPM_P1;HPM_P2
2022/10/25 00:01:29;;;;;;;8.82;3.70;;;;;;;22.58;53.80;101125.56;5058097;28;20112;-73
2022/10/25 00:03:55;;;;;;;10.85;3.47;;;;;;;22.13;53.62;101128.00;5048182;28;20024;-73
2022/10/25 00:06:21;;;;;;;14.15;3.75;;;;;;;21.31;58.20;101134.00;5029520;28;20030;-74
2022/10/25 00:08:46;;;;;;;12.43;4.07;;;;;;;22.50;55.04;101136.66;5032226;28;20025;-73
2022/10/25 00:11:31;;;;;;;10.85;3.83;;;;;;;21.32;57.78;101133.03;5050166;28;20060;-73
2022/10/25 00:14:00;;;;;;;13.50;3.90;;;;;;;21.27;58.22;101143.91;5047767;28;20052;-73
2022/10/25 00:16:29;;;;;;;10.70;4.30;;;;;;;22.09;58.26;101133.53;5048632;28;20032;-73
2022/10/25 00:18:54;;;;;;;9.45;3.22;;;;;;;22.14;54.82;101148.31;5048176;28;20103;-73
2022/10/25 00:21:20;;;;;;;13.52;3.17;;;;;;;22.37;56.64;101151.59;5048904;28;20111;-74
2022/10/25 00:23:46;;;;;;;11.73;2.67;;;;;;;20.66;61.84;101147.72;5041429;28;20025;-74
2022/10/25 00:26:12;;;;;;;12.20;2.58;;;;;;;21.89;56.39;101147.94;5048744;28;20460;-74
2022/10/25 00:28:38;;;;;;;9.13;2.60;;;;;;;21.28;59.82;101152.72;5040795;28;20074;-73
2022/10/25 00:31:12;;;;;;;14.88;2.40;;;;;;;21.74;56.54;101147.78;5043004;28;20033;-73
2022/10/25 00:33:38;;;;;;;14.20;2.25;;;;;;;21.78;58.33;101149.34;5053859;28;20029;-74
2022/10/25 00:36:14;;;;;;;18.73;2.72;;;;;;;22.25;54.43;101152.22;5054053;28;20021;-73
2022/10/25 00:38:40;;;;;;;12.60;2.30;;;;;;;23.13;52.30;101158.88;5051492;28;20063;-74
2022/10/25 00:41:06;;;;;;;9.85;1.90;;;;;;;21.31;58.16;101156.13;5052417;28;20053;-73
2022/10/25 00:43:44;;;;;;;12.98;2.47;;;;;;;22.06;54.36;101160.31;5052334;28;20484;-73
2022/10/25 00:46:15;;;;;;;15.23;2.95;;;;;;;22.18;56.03;101162.34;5046302;28;20025;-73
2022/10/25 00:48:51;;;;;;;15.95;2.60;;;;;;;22.69;53.45;101151.59;5055771;28;20152;-74
2022/10/25 00:51:17;;;;;;;18.02;2.95;;;;;;;22.15;54.01;101144.72;5048594;28;20041;-74
2022/10/25 00:53:42;;;;;;;16.38;2.70;;;;;;;21.28;58.34;101156.28;5037338;28;20025;-74
2022/10/25 00:56:27;;;;;;;14.32;2.00;;;;;;;22.46;55.21;101151.09;5067799;28;20493;-74
2022/10/25 00:58:58;;;;;;;17.95;3.00;;;;;;;21.60;57.58;101155.63;5051679;28;20029;-74
2022/10/25 01:01:24;;;;;;;18.90;2.63;;;;;;;22.24;55.20;101171.78;5046326;28;20034;-73
2022/10/25 01:03:53;;;;;;;14.88;2.20;;;;;;;21.72;55.80;101162.97;5052329;28;20050;-73
2022/10/25 01:06:27;;;;;;;14.05;2.55;;;;;;;21.17;58.77;101159.47;5052918;28;20503;-73
2022/10/25 01:08:54;;;;;;;10.70;2.28;;;;;;;21.26;59.07;101165.25;5051219;28;20033;-73
2022/10/25 01:11:20;;;;;;;12.65;2.28;;;;;;;21.61;56.98;101163.50;5051883;28;20044;-73
2022/10/25 01:13:46;;;;;;;13.80;2.10;;;;;;;21.26;59.12;101168.75;5051693;28;20528;-73
2022/10/25 01:16:42;;;;;;;10.88;2.53;;;;;;;21.72;57.42;101165.63;5051574;28;20047;-73
2022/10/25 01:19:46;;;;;;;10.63;1.88;;;;;;;20.76;59.71;101172.97;5031306;28;20036;-73
2022/10/25 01:22:29;;;;;;;13.80;3.70;;;;;;;22.33;54.65;101171.31;5046669;28;20086;-73
2022/10/25 01:25:10;;;;;;;18.63;2.55;;;;;;;21.64;58.35;101173.13;5063612;28;20029;-74
2022/10/25 01:28:00;;;;;;;15.63;2.92;;;;;;;22.09;56.56;101179.66;5048944;28;20090;-74
2022/10/25 01:30:51;;;;;;;15.05;3.60;;;;;;;21.17;61.09;101186.03;5057291;28;20033;-73
2022/10/25 01:33:26;;;;;;;15.27;2.80;;;;;;;22.22;53.88;101177.19;5049364;28;20120;-73
2022/10/25 01:36:20;;;;;;;15.48;3.20;;;;;;;22.18;55.69;101173.81;5032850;28;20037;-74
2022/10/25 01:39:11;;;;;;;13.02;2.38;;;;;;;21.43;56.53;101178.56;5049655;28;20030;-73
2022/10/25 01:42:19;;;;;;;19.58;3.17;;;;;;;20.37;61.59;101188.91;5050220;28;20473;-73
2022/10/25 01:45:06;;;;;;;17.00;3.00;;;;;;;21.15;58.52;101187.91;4999289;28;20041;-73
2022/10/25 01:47:47;;;;;;;19.38;3.78;;;;;;;22.37;55.67;101194.19;5048533;28;20033;-73
2022/10/25 01:50:21;;;;;;;14.05;2.30;;;;;;;22.59;55.45;101187.69;5051882;28;20042;-73
2022/10/25 01:52:46;;;;;;;17.05;3.97;;;;;;;20.82;61.52;101188.59;5065548;28;20039;-73
2022/10/25 01:55:13;;;;;;;15.35;2.72;;;;;;;21.79;59.67;101182.97;5039837;28;20388;-73
2022/10/25 01:57:50;;;;;;;21.63;3.42;;;;;;;22.18;54.90;101189.81;5043049;28;20029;-73
2022/10/25 02:00:18;;;;;;;16.75;3.28;;;;;;;22.06;55.38;101185.13;5048863;28;20072;-73
2022/10/25 02:02:50;;;;;;;11.48;2.55;;;;;;;22.00;58.65;101180.16;5060918;28;20037;-73
2022/10/25 02:05:20;;;;;;;18.10;2.80;;;;;;;22.08;57.59;101183.25;5067302;28;20032;-73
2022/10/25 02:07:54;;;;;;;19.55;2.72;;;;;;;22.07;56.65;101186.84;5042434;28;20386;-74
2022/10/25 02:10:31;;;;;;;14.65;2.45;;;;;;;22.08;57.94;101191.25;5048599;28;20030;-73
2022/10/25 02:13:02;;;;;;;19.08;2.67;;;;;;;20.88;60.81;101199.88;5050340;28;20037;-74
2022/10/25 02:15:48;;;;;;;19.17;4.38;;;;;;;21.77;57.64;101203.47;5066422;28;20064;-73
2022/10/25 02:18:20;;;;;;;19.92;2.67;;;;;;;21.64;59.99;101205.06;5048332;28;20423;-73
2022/10/25 02:20:50;;;;;;;19.45;3.83;;;;;;;22.77;54.95;101207.97;5035458;28;20029;-73
2022/10/25 02:23:19;;;;;;;14.18;3.33;;;;;;;21.26;58.21;101199.81;5044723;28;20024;-74
2022/10/25 02:25:46;;;;;;;15.27;3.05;;;;;;;22.22;55.12;101197.66;5065069;28;20033;-73
2022/10/25 02:28:14;;;;;;;21.33;3.33;;;;;;;21.74;58.78;101200.97;5038233;28;20032;-73
2022/10/25 02:30:42;;;;;;;17.00;3.08;;;;;;;21.37;59.81;101202.78;5054219;28;20120;-73
2022/10/25 02:33:07;;;;;;;16.55;3.33;;;;;;;19.79;68.65;101212.59;5034937;28;20362;-74
2022/10/25 02:35:33;;;;;;;13.65;2.97;;;;;;;21.94;57.64;101199.06;5051409;28;20025;-74
2022/10/25 02:37:59;;;;;;;16.20;2.50;;;;;;;21.97;56.54;101206.94;5048600;28;20060;-73
2022/10/25 02:40:24;;;;;;;18.90;2.53;;;;;;;21.58;56.32;101208.00;5047314;28;20119;-73
2022/10/25 02:42:50;;;;;;;24.42;3.60;;;;;;;21.42;60.27;101214.06;5038628;28;20020;-74
2022/10/25 02:45:15;;;;;;;18.75;2.92;;;;;;;21.79;57.61;101206.06;5042559;28;20079;-73
2022/10/25 02:47:41;;;;;;;19.17;2.58;;;;;;;21.76;58.42;101216.84;5037899;28;20035;-74
2022/10/25 02:50:06;;;;;;;13.88;2.58;;;;;;;21.04;61.33;101208.81;5045868;28;20413;-73
2022/10/25 02:52:32;;;;;;;19.67;2.97;;;;;;;22.03;56.90;101215.41;5049781;28;20037;-73
2022/10/25 02:54:57;;;;;;;12.15;3.38;;;;;;;21.69;54.91;101219.84;5050008;28;20112;-72
2022/10/25 02:57:23;;;;;;;15.15;2.67;;;;;;;22.53;52.29;101213.72;5049681;28;20091;-72
2022/10/25 02:59:48;;;;;;;17.83;3.03;;;;;;;21.33;59.75;101222.50;5043123;28;20033;-72
2022/10/25 03:02:14;;;;;;;20.42;2.50;;;;;;;21.98;57.13;101224.59;5049424;28;20115;-72
2022/10/25 03:04:39;;;;;;;18.92;3.15;;;;;;;22.28;54.33;101223.94;5049804;28;20477;-72
2022/10/25 03:07:05;;;;;;;18.83;2.72;;;;;;;22.06;56.06;101217.06;5045596;28;20029;-72
2022/10/25 03:09:30;;;;;;;22.30;2.88;;;;;;;21.36;58.17;101222.34;5031712;28;20029;-72
2022/10/25 03:11:55;;;;;;;18.17;2.83;;;;;;;20.76;60.92;101236.69;5038428;28;20036;-72
2022/10/25 03:14:21;;;;;;;19.45;3.20;;;;;;;21.76;57.33;101239.03;5046955;28;20079;-73
2022/10/25 03:16:46;;;;;;;22.45;2.75;;;;;;;20.83;61.59;101235.47;5047360;28;20040;-72
2022/10/25 03:19:11;;;;;;;15.35;2.30;;;;;;;21.56;59.15;101236.50;5048570;28;20083;-72
2022/10/25 03:21:37;;;;;;;23.33;2.72;;;;;;;21.22;59.79;101235.47;5048686;28;20068;-72
2022/10/25 03:24:02;;;;;;;17.08;2.60;;;;;;;20.76;60.68;101247.31;5048512;28;20440;-72
2022/10/25 03:26:28;;;;;;;37.60;3.42;;;;;;;21.15;60.04;101245.50;5045726;28;20431;-72
2022/10/25 03:28:53;;;;;;;20.80;2.70;;;;;;;20.91;59.29;101247.53;5049208;28;20025;-72
2022/10/25 03:31:19;;;;;;;12.00;2.20;;;;;;;20.89;61.12;101249.41;5032987;28;20446;-72
2022/10/25 03:33:45;;;;;;;19.08;2.70;;;;;;;22.41;54.65;101254.31;5041241;28;20044;-72
2022/10/25 03:36:11;;;;;;;17.95;2.92;;;;;;;22.23;55.63;101265.91;5047071;28;20485;-72
2022/10/25 03:38:37;;;;;;;11.27;2.45;;;;;;;21.54;56.26;101267.59;5042199;28;20366;-72
2022/10/25 03:41:03;;;;;;;15.95;2.58;;;;;;;21.75;56.46;101265.66;5046385;28;20268;-72
2022/10/25 03:43:28;;;;;;;16.60;2.75;;;;;;;21.28;58.98;101267.03;5049825;28;20549;-72
2022/10/25 03:45:53;;;;;;;18.83;2.90;;;;;;;21.22;58.92;101275.31;5046059;28;20397;-72
2022/10/25 03:48:19;;;;;;;15.48;2.30;;;;;;;20.77;63.53;101277.41;5042667;28;20024;-72
2022/10/25 03:50:44;;;;;;;20.05;2.95;;;;;;;21.40;59.09;101282.41;5054661;28;20041;-72
2022/10/25 03:53:10;;;;;;;18.58;3.10;;;;;;;20.95;58.65;101284.53;5047708;28;20029;-72
2022/10/25 03:55:35;;;;;;;17.23;2.70;;;;;;;21.22;57.81;101280.66;5031504;28;20029;-72
2022/10/25 03:58:01;;;;;;;16.33;2.70;;;;;;;21.27;58.83;101286.59;5058286;28;20077;-72
2022/10/25 04:00:26;;;;;;;20.30;3.45;;;;;;;20.75;60.92;101287.25;5032952;28;20072;-72
2022/10/25 04:02:54;;;;;;;23.98;4.07;;;;;;;20.51;62.12;101282.94;5049337;28;20492;-72
2022/10/25 04:05:19;;;;;;;21.95;3.70;;;;;;;20.74;63.75;101289.00;5049876;28;20397;-72
2022/10/25 04:07:44;;;;;;;23.35;3.92;;;;;;;22.14;55.81;101277.91;5053874;28;20033;-72
2022/10/25 04:10:09;;;;;;;21.77;4.25;;;;;;;21.38;59.27;101288.72;5050270;28;20508;-72
2022/10/25 04:12:35;;;;;;;20.40;3.88;;;;;;;21.00;58.42;101284.31;5048954;28;20032;-72
2022/10/25 04:15:00;;;;;;;14.50;4.45;;;;;;;21.75;57.87;101276.31;5051243;28;20064;-72
2022/10/25 04:17:25;;;;;;;17.17;4.63;;;;;;;21.67;55.98;101279.38;5047688;28;20040;-72
2022/10/25 04:19:51;;;;;;;24.65;4.75;;;;;;;21.72;57.24;101282.69;5050370;28;20029;-72
2022/10/25 04:22:16;;;;;;;18.30;5.43;;;;;;;21.68;56.88;101283.75;5052918;28;20039;-72
2022/10/25 04:24:41;;;;;;;17.55;4.95;;;;;;;21.26;58.02;101284.88;5053943;28;20025;-72
2022/10/25 04:27:07;;;;;;;19.48;4.00;;;;;;;21.85;56.06;101289.06;5051219;28;20056;-72
2022/10/25 04:29:32;;;;;;;14.95;4.15;;;;;;;21.15;59.13;101310.16;5054518;28;20082;-72
2022/10/25 04:31:58;;;;;;;14.95;3.75;;;;;;;21.04;60.24;101311.59;5036219;28;20025;-72
2022/10/25 04:34:23;;;;;;;15.38;3.75;;;;;;;21.33;60.33;101313.72;5040449;28;20045;-73
2022/10/25 04:36:48;;;;;;;18.73;3.83;;;;;;;20.88;61.20;101314.09;5045462;28;20031;-72
2022/10/25 04:39:13;;;;;;;22.58;5.03;;;;;;;20.52;61.70;101313.00;5046466;28;20100;-72
2022/10/25 04:41:39;;;;;;;22.08;4.30;;;;;;;20.49;61.18;101324.59;5057651;28;20056;-71
2022/10/25 04:44:04;;;;;;;13.68;4.03;;;;;;;21.07;59.93;101322.94;5036956;28;20025;-72
2022/10/25 04:46:30;;;;;;;16.05;3.55;;;;;;;20.61;62.09;101325.88;5032856;28;20032;-72
2022/10/25 04:48:56;;;;;;;19.15;4.13;;;;;;;21.36;59.12;101328.69;5049140;28;20039;-71
2022/10/25 04:51:21;;;;;;;17.92;3.85;;;;;;;20.31;64.39;101330.72;5054883;28;20044;-73
2022/10/25 04:53:46;;;;;;;14.65;4.28;;;;;;;20.14;65.88;101331.44;5052472;28;20504;-72
2022/10/25 04:56:13;;;;;;;14.85;3.58;;;;;;;20.99;60.61;101330.41;5053726;28;20060;-72
2022/10/25 04:58:39;;;;;;;20.90;4.20;;;;;;;20.54;62.57;101334.16;5051876;28;20032;-72
2022/10/25 05:01:13;;;;;;;10.55;3.25;;;;;;;19.85;65.26;101351.22;5051086;28;20020;-72
2022/10/25 05:03:39;;;;;;;13.43;3.33;;;;;;;20.98;61.56;101336.69;5050973;28;20029;-72
2022/10/25 05:06:12;;;;;;;16.50;4.32;;;;;;;20.22;64.50;101342.59;5051009;28;20020;-72
2022/10/25 05:08:39;;;;;;;18.15;3.95;;;;;;;21.74;57.47;101349.09;5047982;28;20029;-72
2022/10/25 05:11:06;;;;;;;19.80;4.10;;;;;;;22.09;54.43;101352.69;5034192;28;20063;-72
2022/10/25 05:13:35;;;;;;;16.15;3.85;;;;;;;22.07;55.47;101340.38;5048370;28;20485;-72
2022/10/25 05:16:01;;;;;;;11.07;4.45;;;;;;;20.53;61.57;101340.44;5053494;28;20392;-72
2022/10/25 05:18:27;;;;;;;11.68;4.10;;;;;;;21.61;57.61;101346.16;5047979;28;20029;-72
2022/10/25 05:20:58;;;;;;;13.95;4.20;;;;;;;21.12;58.90;101344.00;5049383;28;20029;-73
2022/10/25 05:23:24;;;;;;;15.57;3.67;;;;;;;20.43;64.98;101364.72;5053343;28;20080;-72
2022/10/25 05:26:16;;;;;;;11.70;3.80;;;;;;;21.57;58.65;101355.22;5052581;28;20021;-72
2022/10/25 05:28:43;;;;;;;14.73;4.88;;;;;;;20.80;59.02;101356.94;5047863;28;20581;-72
2022/10/25 05:31:20;;;;;;;15.95;3.97;;;;;;;20.93;60.30;101346.66;5050560;28;20481;-72
2022/10/25 05:33:49;;;;;;;15.23;4.07;;;;;;;20.99;59.84;101356.97;5049337;28;20123;-72
2022/10/25 05:36:15;;;;;;;10.02;4.18;;;;;;;20.36;63.46;101360.59;5049947;28;20446;-71
2022/10/25 05:38:41;;;;;;;18.65;4.15;;;;;;;20.92;60.33;101355.53;5047623;28;20059;-73
2022/10/25 05:41:08;;;;;;;16.35;4.32;;;;;;;21.86;55.89;101370.63;5051185;28;20051;-72
2022/10/25 05:43:34;;;;;;;14.35;5.45;;;;;;;21.32;58.74;101372.31;5052668;28;20036;-72
2022/10/25 05:46:02;;;;;;;13.07;5.00;;;;;;;20.94;59.47;101364.31;5051708;28;20028;-73
2022/10/25 05:48:27;;;;;;;15.40;5.18;;;;;;;20.74;60.98;101379.31;5052549;28;20480;-72
2022/10/25 05:50:53;;;;;;;11.55;5.15;;;;;;;21.42;58.33;101381.59;5057485;28;20067;-73
2022/10/25 05:53:18;;;;;;;23.77;5.97;;;;;;;22.60;53.81;101381.19;5033377;28;20575;-72
2022/10/25 05:55:44;;;;;;;11.90;5.82;;;;;;;21.32;56.63;101375.84;5051673;28;20017;-73
2022/10/25 05:58:09;;;;;;;10.30;5.43;;;;;;;20.82;59.85;101390.47;5047488;28;20511;-72
2022/10/25 06:00:34;;;;;;;13.15;5.18;;;;;;;20.62;59.69;101393.09;5036209;28;20025;-72
2022/10/25 06:03:01;;;;;;;16.30;6.75;;;;;;;19.99;63.38;101392.19;5047642;28;21351;-73
2022/10/25 06:05:26;;;;;;;19.42;6.47;;;;;;;20.81;60.23;101387.91;5047355;28;20111;-73
2022/10/25 06:07:52;;;;;;;15.07;6.47;;;;;;;21.49;55.81;101385.66;5054830;28;20033;-73
2022/10/25 06:10:17;;;;;;;20.13;6.47;;;;;;;20.99;60.04;101386.22;5049238;28;20024;-75
2022/10/25 06:12:42;;;;;;;17.95;6.90;;;;;;;20.10;61.62;101405.00;5050774;28;20079;-73
2022/10/25 06:15:08;;;;;;;18.02;7.03;;;;;;;21.19;57.64;101399.44;5050958;28;20507;-73
2022/10/25 06:17:33;;;;;;;15.18;7.32;;;;;;;21.27;57.55;101398.25;5060029;28;20457;-73
2022/10/25 06:19:59;;;;;;;17.65;7.25;;;;;;;21.19;56.93;101396.78;5069069;28;20025;-73
2022/10/25 06:22:24;;;;;;;16.95;6.72;;;;;;;21.84;55.59;101409.78;5051804;28;20029;-74
2022/10/25 06:24:50;;;;;;;15.40;6.70;;;;;;;21.17;57.09;101406.66;5052488;28;20029;-73
2022/10/25 06:27:15;;;;;;;15.35;7.03;;;;;;;20.80;59.12;101410.06;5048966;28;20017;-73
2022/10/25 06:29:40;;;;;;;16.52;7.50;;;;;;;21.54;55.08;101404.09;5050615;28;20029;-73
2022/10/25 06:32:06;;;;;;;12.40;6.90;;;;;;;21.58;55.91;101410.13;5051180;28;20408;-73
2022/10/25 06:34:31;;;;;;;14.18;6.85;;;;;;;21.30;59.21;101414.06;5062001;28;20484;-73
2022/10/25 06:36:56;;;;;;;15.35;7.10;;;;;;;21.36;56.73;101413.75;5057095;28;20032;-73
2022/10/25 06:39:22;;;;;;;15.23;7.35;;;;;;;20.40;61.42;101425.91;5043050;28;20025;-73
2022/10/25 06:41:47;;;;;;;18.35;7.80;;;;;;;21.35;57.22;101422.69;5058912;28;20089;-73
2022/10/25 06:44:13;;;;;;;20.20;8.10;;;;;;;21.15;59.09;101437.72;5051490;28;20131;-73
2022/10/25 06:46:39;;;;;;;18.27;7.22;;;;;;;21.77;54.51;101434.94;5050733;28;20028;-73
2022/10/25 06:49:05;;;;;;;17.17;7.50;;;;;;;20.59;59.49;101451.69;5060303;28;20082;-73
2022/10/25 06:51:32;;;;;;;19.33;8.20;;;;;;;21.33;57.57;101440.50;5070523;28;20064;-74
2022/10/25 06:54:04;;;;;;;21.05;8.68;;;;;;;21.33;58.82;101435.19;5046449;28;20086;-73
2022/10/25 06:56:30;;;;;;;19.35;8.60;;;;;;;21.37;56.12;101450.06;5061321;28;20415;-73
2022/10/25 06:58:55;;;;;;;17.83;8.10;;;;;;;21.02;59.57;101449.88;5047452;28;20029;-73
2022/10/25 07:01:23;;;;;;;22.98;8.43;;;;;;;20.91;59.22;101455.66;5045641;28;20030;-73
2022/10/25 07:03:52;;;;;;;24.80;8.57;;;;;;;20.79;60.55;101461.50;5051302;28;20074;-73
2022/10/25 07:06:22;;;;;;;21.48;8.07;;;;;;;20.79;59.15;101461.50;5048239;28;20550;-73
2022/10/25 07:08:52;;;;;;;16.42;7.90;;;;;;;20.58;59.84;101464.09;5049403;28;20056;-73
2022/10/25 07:11:18;;;;;;;14.55;7.57;;;;;;;20.18;63.18;101473.69;5058052;28;20081;-73
2022/10/25 07:13:45;;;;;;;21.23;7.57;;;;;;;21.91;56.11;101473.31;5048088;28;20033;-73
2022/10/25 07:16:15;;;;;;;16.65;7.70;;;;;;;20.92;60.47;101472.44;5043024;28;20683;-73
2022/10/25 07:18:41;;;;;;;20.20;8.38;;;;;;;20.20;60.82;101478.97;5048590;28;20090;-73
2022/10/25 07:21:11;;;;;;;14.73;8.45;;;;;;;19.55;66.31;101481.41;5054886;28;20029;-73
2022/10/25 07:23:40;;;;;;;12.95;8.65;;;;;;;19.48;66.59;101481.66;5042032;28;20037;-73
2022/10/25 07:26:11;;;;;;;12.85;7.88;;;;;;;19.73;64.35;101486.03;5083620;28;20029;-73
2022/10/25 07:28:37;;;;;;;14.57;8.57;;;;;;;20.09;63.78;101482.03;5054019;28;20033;-72
2022/10/25 07:31:02;;;;;;;20.35;7.45;;;;;;;20.98;59.16;101482.81;5048848;28;20484;-73
2022/10/25 07:33:30;;;;;;;17.67;7.18;;;;;;;21.76;55.26;101475.78;5049270;28;20045;-73
2022/10/25 07:35:55;;;;;;;16.27;7.30;;;;;;;21.43;56.81;101484.38;5048713;28;20404;-73
2022/10/25 07:38:20;;;;;;;13.20;6.75;;;;;;;21.99;54.91;101472.00;5044028;28;20040;-73
2022/10/25 07:40:46;;;;;;;9.40;6.15;;;;;;;21.59;56.35;101478.38;5050631;28;20124;-73
2022/10/25 07:43:11;;;;;;;14.65;6.68;;;;;;;20.98;58.93;101488.13;5046578;28;20056;-72
2022/10/25 07:45:37;;;;;;;12.70;6.50;;;;;;;20.26;61.60;101495.47;5050470;28;20033;-73
2022/10/25 07:48:03;;;;;;;12.38;6.43;;;;;;;21.01;57.95;101501.28;5050336;28;20060;-72
2022/10/25 07:50:28;;;;;;;15.18;6.20;;;;;;;21.96;55.10;101500.59;5049104;28;20493;-73
2022/10/25 07:52:56;;;;;;;14.25;6.38;;;;;;;21.52;55.94;101494.59;5050341;28;20053;-72
2022/10/25 07:55:22;;;;;;;14.73;6.30;;;;;;;20.45;62.48;101503.56;5051681;28;20052;-73
2022/10/25 07:57:47;;;;;;;12.20;6.38;;;;;;;20.83;59.58;101509.09;5051058;28;20108;-72
2022/10/25 08:00:13;;;;;;;9.93;6.10;;;;;;;21.61;56.73;101503.09;5050134;28;20112;-73
2022/10/25 08:02:38;;;;;;;16.45;6.65;;;;;;;21.91;56.50;101497.28;5050266;28;20396;-72
2022/10/25 08:05:04;;;;;;;10.43;6.38;;;;;;;21.09;60.18;101517.75;5049486;28;20493;-73
2022/10/25 08:07:29;;;;;;;14.13;7.03;;;;;;;20.76;59.69;101515.63;5051473;28;20033;-72
2022/10/25 08:09:55;;;;;;;14.48;7.78;;;;;;;21.16;58.39;101529.84;5049368;28;20025;-72
2022/10/25 08:12:20;;;;;;;20.95;8.50;;;;;;;21.84;57.02;101521.53;5050295;28;20094;-73
2022/10/25 08:14:46;;;;;;;16.70;8.07;;;;;;;20.26;63.77;101526.47;5050290;28;20053;-73
2022/10/25 08:17:11;;;;;;;17.05;8.18;;;;;;;20.49;61.76;101534.38;5049633;28;20029;-73
2022/10/25 08:19:37;;;;;;;13.88;7.93;;;;;;;21.22;58.35;101527.84;5049920;28;20473;-73
2022/10/25 08:22:03;;;;;;;15.98;7.60;;;;;;;21.13;59.67;101534.41;5050278;28;20075;-73
2022/10/25 08:24:28;;;;;;;15.63;8.77;;;;;;;21.47;56.78;101528.50;5049533;28;20029;-73
2022/10/25 08:26:54;;;;;;;18.30;8.18;;;;;;;21.54;57.28;101530.91;5051490;28;20109;-73
2022/10/25 08:29:19;;;;;;;11.27;8.10;;;;;;;20.23;61.49;101537.22;5049905;28;20488;-72
2022/10/25 08:31:44;;;;;;;20.52;8.50;;;;;;;22.25;55.62;101536.44;5050573;28;20063;-72
2022/10/25 08:34:10;;;;;;;16.77;8.05;;;;;;;21.55;56.51;101545.94;5049753;28;20028;-73
2022/10/25 08:36:35;;;;;;;11.02;7.60;;;;;;;22.19;54.71;101542.94;5050029;28;20477;-72
2022/10/25 08:39:00;;;;;;;13.25;7.53;;;;;;;22.76;52.59;101541.13;5065906;28;20455;-72
2022/10/25 08:41:46;;;;;;;17.77;7.80;;;;;;;22.30;53.97;101544.25;5050914;28;20033;-73
2022/10/25 08:44:30;;;;;;;17.33;8.77;;;;;;;21.91;54.57;101537.19;5066706;28;20033;-72
2022/10/25 08:47:21;;;;;;;17.17;8.02;;;;;;;22.70;52.82;101543.16;5049245;28;20029;-73
2022/10/25 08:49:51;;;;;;;16.50;8.15;;;;;;;21.25;56.83;101543.66;5049520;28;20156;-73
2022/10/25 08:52:24;;;;;;;14.65;9.05;;;;;;;22.12;54.69;101546.84;5049364;28;20051;-73
2022/10/25 08:54:49;;;;;;;11.35;7.95;;;;;;;21.32;56.27;101556.63;5053745;28;20051;-73
2022/10/25 08:57:29;;;;;;;14.23;8.50;;;;;;;21.26;57.88;101550.72;5053484;28;20167;-72
2022/10/25 08:59:58;;;;;;;16.20;8.30;;;;;;;21.09;58.26;101554.97;5054351;28;20101;-72
2022/10/25 09:02:56;;;;;;;15.30;8.07;;;;;;;23.02;52.36;101553.13;5053384;28;20034;-73
2022/10/25 09:05:36;;;;;;;15.27;8.52;;;;;;;21.57;56.57;101552.91;5053501;28;20100;-73
2022/10/25 09:08:37;;;;;;;14.52;6.72;;;;;;;22.59;53.30;101549.97;5052708;28;20105;-73
2022/10/25 09:11:21;;;;;;;12.48;7.47;;;;;;;22.05;55.35;101560.50;5053219;28;20082;-72
2022/10/25 09:13:55;;;;;;;21.13;7.80;;;;;;;23.29;51.00;101560.69;5052068;28;20033;-73
2022/10/25 09:16:28;;;;;;;16.83;7.72;;;;;;;24.05;49.04;101560.19;5053216;28;20029;-72
2022/10/25 09:18:58;;;;;;;13.38;7.20;;;;;;;23.40;49.86;101569.00;5054542;28;20028;-73
2022/10/25 09:21:39;;;;;;;11.77;6.72;;;;;;;23.58;49.47;101566.31;5052389;28;20030;-73
2022/10/25 09:24:19;;;;;;;10.93;6.90;;;;;;;22.21;53.62;101577.47;5054275;28;20116;-72
2022/10/25 09:26:59;;;;;;;15.43;6.97;;;;;;;21.82;55.38;101581.91;5052800;28;20028;-72
2022/10/25 09:29:34;;;;;;;13.52;6.93;;;;;;;21.63;55.86;101586.34;5052168;28;20120;-72
2022/10/25 09:32:04;;;;;;;15.05;7.00;;;;;;;22.05;54.93;101589.78;5052796;28;20040;-73
2022/10/25 09:34:31;;;;;;;16.42;6.93;;;;;;;23.01;51.82;101572.72;5053476;28;20533;-72
2022/10/25 09:37:32;;;;;;;11.48;6.65;;;;;;;22.00;55.37;101584.69;5054184;28;20036;-72
2022/10/25 09:40:03;;;;;;;14.77;6.97;;;;;;;22.15;54.27;101586.63;4989848;28;20041;-72
2022/10/25 09:42:38;;;;;;;15.18;6.97;;;;;;;21.09;58.95;101601.91;5051845;28;20024;-72
2022/10/25 09:45:13;;;;;;;18.52;6.63;;;;;;;22.04;56.90;101596.91;5052826;28;20062;-72
2022/10/25 09:47:49;;;;;;;20.88;6.32;;;;;;;22.50;53.74;101592.09;5052722;28;20108;-72
2022/10/25 09:50:26;;;;;;;12.52;6.95;;;;;;;22.24;55.31;101597.75;5052881;28;20099;-73
2022/10/25 09:53:02;;;;;;;15.35;6.72;;;;;;;23.12;52.10;101597.09;5052654;28;20037;-72
2022/10/25 09:55:42;;;;;;;19.48;5.97;;;;;;;22.96;52.65;101604.09;5053090;28;20025;-73
2022/10/25 09:58:18;;;;;;;16.35;6.45;;;;;;;23.17;50.05;101603.03;5053773;28;20021;-72
2022/10/25 10:00:44;;;;;;;12.20;6.07;;;;;;;23.12;51.32;101602.44;5052159;28;20369;-73
2022/10/25 10:03:11;;;;;;;13.27;7.43;;;;;;;24.07;47.90;101603.72;5052651;28;20040;-72
2022/10/25 10:05:40;;;;;;;17.00;6.20;;;;;;;22.69;52.88;101609.84;5052406;28;20098;-73
2022/10/25 10:08:07;;;;;;;12.05;5.63;;;;;;;23.41;50.12;101609.84;5052237;28;20051;-73
2022/10/25 10:10:34;;;;;;;12.55;5.47;;;;;;;22.70;51.58;101609.78;5051192;28;20399;-73
2022/10/25 10:13:11;;;;;;;18.98;6.32;;;;;;;23.74;49.59;101623.25;5053431;28;20024;-73
2022/10/25 10:15:53;;;;;;;14.02;5.65;;;;;;;23.41;51.29;101613.41;5052113;28;20055;-73
2022/10/25 10:18:30;;;;;;;18.47;5.33;;;;;;;24.18;49.47;101617.31;5051427;28;20140;-72
2022/10/25 10:21:05;;;;;;;14.88;5.53;;;;;;;24.56;47.71;101611.66;5051747;28;20013;-72
2022/10/25 10:23:52;;;;;;;16.58;5.40;;;;;;;22.84;51.14;101609.09;5052646;28;20055;-72
2022/10/25 10:26:30;;;;;;;17.60;5.13;;;;;;;22.47;53.35;101613.53;5051928;28;20021;-72
2022/10/25 10:29:01;;;;;;;13.32;5.00;;;;;;;24.21;48.60;101619.81;5053161;28;20029;-73
2022/10/25 10:31:34;;;;;;;13.32;4.47;;;;;;;23.73;49.96;101624.19;5051159;28;20467;-73
2022/10/25 10:34:00;;;;;;;9.70;4.40;;;;;;;22.75;51.06;101620.22;5053097;28;20044;-73
2022/10/25 10:36:28;;;;;;;13.68;4.35;;;;;;;22.51;52.97;101616.94;5051506;28;20060;-73
2022/10/25 10:39:12;;;;;;;11.82;4.28;;;;;;;22.96;51.70;101618.28;5050845;28;20447;-73
2022/10/25 10:41:57;;;;;;;12.55;4.68;;;;;;;23.74;49.57;101615.25;5051633;28;20040;-73
2022/10/25 10:44:22;;;;;;;9.82;4.53;;;;;;;22.97;52.06;101621.81;5052548;28;20397;-73
2022/10/25 10:46:48;;;;;;;14.50;4.00;;;;;;;23.90;50.65;101614.44;5050713;28;20131;-72
2022/10/25 10:49:14;;;;;;;13.40;3.75;;;;;;;25.35;45.99;101608.94;5067979;28;20388;-74
2022/10/25 10:51:43;;;;;;;10.10;3.55;;;;;;;25.14;45.62;101611.91;5050524;28;20021;-73
2022/10/25 10:54:20;;;;;;;12.43;3.40;;;;;;;24.07;49.22;101614.38;5051095;28;20020;-73
2022/10/25 10:56:54;;;;;;;12.80;3.58;;;;;;;24.98;47.40;101608.44;5051288;28;20046;-73
2022/10/25 10:59:36;;;;;;;14.15;3.50;;;;;;;22.49;51.55;101619.69;5051846;28;20021;-74
2022/10/25 11:02:22;;;;;;;11.15;3.47;;;;;;;23.21;50.79;101623.25;5051033;28;20028;-72
2022/10/25 11:04:49;;;;;;;12.15;3.35;;;;;;;24.52;47.52;101617.25;5052415;28;20029;-72
2022/10/25 11:07:34;;;;;;;12.40;3.35;;;;;;;23.10;50.16;101630.91;5050336;28;20025;-72
2022/10/25 11:10:15;;;;;;;12.27;3.17;;;;;;;22.33;52.00;101623.97;5052377;28;20024;-72
2022/10/25 11:12:41;;;;;;;9.55;3.17;;;;;;;23.57;50.26;101623.25;5050700;28;20416;-72
2022/10/25 11:15:10;;;;;;;14.38;3.42;;;;;;;23.10;51.76;101620.25;5051214;28;20466;-72
2022/10/25 11:17:42;;;;;;;11.13;3.30;;;;;;;23.46;51.28;101631.81;5050867;28;20025;-72
2022/10/25 11:20:49;;;;;;;22.20;10.73;;;;;;;24.71;47.57;101628.63;5066859;28;20542;-72
2022/10/25 11:23:48;;;;;;;17.48;4.00;;;;;;;24.81;46.77;101628.09;5049452;28;20048;-72
2022/10/25 11:26:35;;;;;;;14.63;4.88;;;;;;;24.01;48.50;101639.59;5051981;28;20029;-72
2022/10/25 11:29:33;;;;;;;13.45;3.22;;;;;;;23.88;47.62;101634.06;5050052;28;20025;-72
2022/10/25 11:32:01;;;;;;;15.90;3.60;;;;;;;23.89;48.33;101629.56;4997210;28;20131;-72